sensor_id;sensor_type;location;lat;lon;timestamp;P1;durP1;ratioP1;P2;durP2;ratioP2
25365;SDS011;13315;48.274;-1.900;2023-11-19T00:01:31;7.18;;;3.90;;
25365;SDS011;13315;48.274;-1.900;2023-11-19T00:03:57;3.47;;;2.80;;
25365;SDS011;13315;48.274;-1.900;2023-11-19T00:06:23;2.90;;;2.80;;
25365;SDS011;13315;48.274;-1.900;2023-11-19T00:08:51;4.28;;;3.70;;
25365;SDS011;13315;48.274;-1.900;2023-11-19T00:11:17;4.82;;;3.88;;
25365;SDS011;13315;48.274;-1.900;2023-11-19T00:13:43;2.83;;;2.63;;
25365;SDS011;13315;48.274;-1.900;2023-11-19T00:16:09;4.38;;;3.22;;
25365;SDS011;13315;48.274;-1.900;2023-11-19T00:18:35;2.60;;;2.45;;
25365;SDS011;13315;48.274;-1.900;2023-11-19T00:21:02;5.57;;;2.80;;
25365;SDS011;13315;48.274;-1.900;2023-11-19T00:23:28;3.63;;;3.33;;
25365;SDS011;13315;48.274;-1.900;2023-11-19T00:25:54;2.63;;;2.53;;
25365;SDS011;13315;48.274;-1.900;2023-11-19T00:28:21;7.30;;;3.45;;
25365;SDS011;13315;48.274;-1.900;2023-11-19T00:30:49;14.40;;;5.22;;
25365;SDS011;13315;48.274;-1.900;2023-11-19T00:33:15;10.18;;;5.18;;
25365;SDS011;13315;48.274;-1.900;2023-11-19T00:35:41;10.45;;;3.33;;
25365;SDS011;13315;48.274;-1.900;2023-11-19T00:38:07;7.65;;;4.00;;
25365;SDS011;13315;48.274;-1.900;2023-11-19T00:40:33;3.08;;;2.90;;
25365;SDS011;13315;48.274;-1.900;2023-11-19T00:42:59;6.28;;;2.90;;
25365;SDS011;13315;48.274;-1.900;2023-11-19T00:45:25;4.15;;;3.40;;
25365;SDS011;13315;48.274;-1.900;2023-11-19T00:47:52;2.80;;;2.70;;
25365;SDS011;13315;48.274;-1.900;2023-11-19T00:50:18;3.20;;;3.00;;
25365;SDS011;13315;48.274;-1.900;2023-11-19T00:52:44;4.43;;;3.75;;
25365;SDS011;13315;48.274;-1.900;2023-11-19T00:55:10;2.50;;;2.40;;
25365;SDS011;13315;48.274;-1.900;2023-11-19T00:57:36;9.57;;;4.40;;
25365;SDS011;13315;48.274;-1.900;2023-11-19T01:00:03;4.95;;;3.30;;
25365;SDS011;13315;48.274;-1.900;2023-11-19T01:02:37;7.90;;;3.47;;
25365;SDS011;13315;48.274;-1.900;2023-11-19T01:05:03;3.67;;;3.47;;
25365;SDS011;13315;48.274;-1.900;2023-11-19T01:07:29;3.90;;;3.60;;
25365;SDS011;13315;48.274;-1.900;2023-11-19T01:09:55;3.22;;;3.03;;
25365;SDS011;13315;48.274;-1.900;2023-11-19T01:12:21;18.70;;;4.63;;
25365;SDS011;13315;48.274;-1.900;2023-11-19T01:14:47;3.30;;;3.00;;
25365;SDS011;13315;48.274;-1.900;2023-11-19T01:17:14;6.15;;;3.92;;
25365;SDS011;13315;48.274;-1.900;2023-11-19T01:19:41;3.15;;;2.95;;
25365;SDS011;13315;48.274;-1.900;2023-11-19T01:22:07;12.55;;;4.05;;
25365;SDS011;13315;48.274;-1.900;2023-11-19T01:24:33;5.07;;;3.75;;
25365;SDS011;13315;48.274;-1.900;2023-11-19T01:26:59;6.47;;;2.80;;
25365;SDS011;13315;48.274;-1.900;2023-11-19T01:29:26;13.15;;;3.05;;
25365;SDS011;13315;48.274;-1.900;2023-11-19T01:31:52;6.13;;;3.33;;
25365;SDS011;13315;48.274;-1.900;2023-11-19T01:34:18;4.88;;;3.78;;
25365;SDS011;13315;48.274;-1.900;2023-11-19T01:36:44;4.03;;;3.72;;
25365;SDS011;13315;48.274;-1.900;2023-11-19T01:39:11;3.47;;;3.20;;
25365;SDS011;13315;48.274;-1.900;2023-11-19T01:41:37;4.95;;;3.67;;
25365;SDS011;13315;48.274;-1.900;2023-11-19T01:44:06;8.80;;;4.93;;
25365;SDS011;13315;48.274;-1.900;2023-11-19T01:46:33;3.22;;;3.03;;
25365;SDS011;13315;48.274;-1.900;2023-11-19T01:49:00;5.30;;;3.33;;
25365;SDS011;13315;48.274;-1.900;2023-11-19T01:51:27;30.10;;;4.07;;
25365;SDS011;13315;48.274;-1.900;2023-11-19T01:53:53;6.10;;;3.53;;
25365;SDS011;13315;48.274;-1.900;2023-11-19T01:56:21;4.63;;;3.78;;
25365;SDS011;13315;48.274;-1.900;2023-11-19T01:58:47;3.10;;;2.90;;
25365;SDS011;13315;48.274;-1.900;2023-11-19T02:01:14;8.38;;;3.78;;
25365;SDS011;13315;48.274;-1.900;2023-11-19T02:03:40;3.20;;;3.03;;
25365;SDS011;13315;48.274;-1.900;2023-11-19T02:06:07;4.93;;;3.67;;
25365;SDS011;13315;48.274;-1.900;2023-11-19T02:08:35;4.85;;;4.32;;
25365;SDS011;13315;48.274;-1.900;2023-11-19T02:11:02;7.28;;;4.65;;
25365;SDS011;13315;48.274;-1.900;2023-11-19T02:13:28;4.15;;;3.65;;
25365;SDS011;13315;48.274;-1.900;2023-11-19T02:15:54;5.07;;;4.68;;
25365;SDS011;13315;48.274;-1.900;2023-11-19T02:18:21;3.85;;;3.55;;
25365;SDS011;13315;48.274;-1.900;2023-11-19T02:20:48;6.10;;;4.10;;
25365;SDS011;13315;48.274;-1.900;2023-11-19T02:23:14;11.98;;;4.00;;
25365;SDS011;13315;48.274;-1.900;2023-11-19T02:25:40;3.88;;;3.63;;
25365;SDS011;13315;48.274;-1.900;2023-11-19T02:28:07;13.60;;;4.93;;
25365;SDS011;13315;48.274;-1.900;2023-11-19T02:30:37;5.28;;;3.55;;
25365;SDS011;13315;48.274;-1.900;2023-11-19T02:33:04;11.88;;;3.88;;
25365;SDS011;13315;48.274;-1.900;2023-11-19T02:35:33;5.38;;;3.17;;
25365;SDS011;13315;48.274;-1.900;2023-11-19T02:37:59;6.57;;;4.45;;
25365;SDS011;13315;48.274;-1.900;2023-11-19T02:40:26;5.22;;;4.63;;
25365;SDS011;13315;48.274;-1.900;2023-11-19T02:42:53;7.32;;;4.15;;
25365;SDS011;13315;48.274;-1.900;2023-11-19T02:45:23;12.70;;;4.90;;
25365;SDS011;13315;48.274;-1.900;2023-11-19T02:47:50;7.07;;;4.57;;
25365;SDS011;13315;48.274;-1.900;2023-11-19T02:50:16;9.57;;;4.18;;
25365;SDS011;13315;48.274;-1.900;2023-11-19T02:52:46;11.20;;;5.18;;
25365;SDS011;13315;48.274;-1.900;2023-11-19T02:55:13;4.97;;;4.70;;
25365;SDS011;13315;48.274;-1.900;2023-11-19T02:57:39;14.00;;;4.88;;
25365;SDS011;13315;48.274;-1.900;2023-11-19T03:00:13;9.52;;;5.00;;
25365;SDS011;13315;48.274;-1.900;2023-11-19T03:02:39;7.40;;;5.30;;
25365;SDS011;13315;48.274;-1.900;2023-11-19T03:05:11;15.40;;;5.72;;
25365;SDS011;13315;48.274;-1.900;2023-11-19T03:07:37;5.50;;;5.05;;
25365;SDS011;13315;48.274;-1.900;2023-11-19T03:10:03;7.32;;;4.93;;
25365;SDS011;13315;48.274;-1.900;2023-11-19T03:12:31;26.55;;;6.30;;
25365;SDS011;13315;48.274;-1.900;2023-11-19T03:14:57;4.55;;;4.35;;
25365;SDS011;13315;48.274;-1.900;2023-11-19T03:17:23;6.35;;;3.60;;
25365;SDS011;13315;48.274;-1.900;2023-11-19T03:19:50;4.60;;;4.28;;
25365;SDS011;13315;48.274;-1.900;2023-11-19T03:22:16;6.35;;;4.78;;
25365;SDS011;13315;48.274;-1.900;2023-11-19T03:24:42;11.63;;;5.70;;
25365;SDS011;13315;48.274;-1.900;2023-11-19T03:27:08;11.13;;;6.13;;
25365;SDS011;13315;48.274;-1.900;2023-11-19T03:29:35;7.97;;;4.72;;
25365;SDS011;13315;48.274;-1.900;2023-11-19T03:32:01;9.32;;;4.00;;
25365;SDS011;13315;48.274;-1.900;2023-11-19T03:34:27;7.72;;;5.18;;
25365;SDS011;13315;48.274;-1.900;2023-11-19T03:36:53;11.43;;;5.18;;
25365;SDS011;13315;48.274;-1.900;2023-11-19T03:39:20;4.63;;;4.43;;
25365;SDS011;13315;48.274;-1.900;2023-11-19T03:41:49;14.18;;;4.93;;
25365;SDS011;13315;48.274;-1.900;2023-11-19T03:44:16;7.10;;;5.13;;
25365;SDS011;13315;48.274;-1.900;2023-11-19T03:46:43;6.65;;;5.60;;
25365;SDS011;13315;48.274;-1.900;2023-11-19T03:49:09;21.38;;;6.03;;
25365;SDS011;13315;48.274;-1.900;2023-11-19T03:51:35;12.00;;;5.60;;
25365;SDS011;13315;48.274;-1.900;2023-11-19T03:54:01;10.23;;;6.45;;
25365;SDS011;13315;48.274;-1.900;2023-11-19T03:56:27;17.60;;;7.45;;
25365;SDS011;13315;48.274;-1.900;2023-11-19T03:58:54;10.93;;;6.03;;
25365;SDS011;13315;48.274;-1.900;2023-11-19T04:01:20;5.18;;;4.88;;
25365;SDS011;13315;48.274;-1.900;2023-11-19T04:03:46;7.05;;;6.38;;
25365;SDS011;13315;48.274;-1.900;2023-11-19T04:06:12;11.02;;;6.07;;
25365;SDS011;13315;48.274;-1.900;2023-11-19T04:08:38;8.82;;;4.00;;
25365;SDS011;13315;48.274;-1.900;2023-11-19T04:11:04;6.28;;;5.60;;
25365;SDS011;13315;48.274;-1.900;2023-11-19T04:13:31;22.92;;;6.60;;
25365;SDS011;13315;48.274;-1.900;2023-11-19T04:15:58;32.50;;;6.15;;
25365;SDS011;13315;48.274;-1.900;2023-11-19T04:18:24;7.78;;;5.13;;
25365;SDS011;13315;48.274;-1.900;2023-11-19T04:20:50;12.38;;;6.68;;
25365;SDS011;13315;48.274;-1.900;2023-11-19T04:23:16;7.95;;;4.30;;
25365;SDS011;13315;48.274;-1.900;2023-11-19T04:25:43;16.77;;;6.75;;
25365;SDS011;13315;48.274;-1.900;2023-11-19T04:28:09;9.55;;;5.28;;
25365;SDS011;13315;48.274;-1.900;2023-11-19T04:30:35;10.60;;;4.55;;
25365;SDS011;13315;48.274;-1.900;2023-11-19T04:33:02;5.35;;;4.95;;
25365;SDS011;13315;48.274;-1.900;2023-11-19T04:35:29;22.10;;;5.82;;
25365;SDS011;13315;48.274;-1.900;2023-11-19T04:37:55;5.72;;;5.32;;
25365;SDS011;13315;48.274;-1.900;2023-11-19T04:40:22;9.52;;;5.68;;
25365;SDS011;13315;48.274;-1.900;2023-11-19T04:42:49;8.77;;;6.57;;
25365;SDS011;13315;48.274;-1.900;2023-11-19T04:45:15;5.80;;;5.50;;
25365;SDS011;13315;48.274;-1.900;2023-11-19T04:47:44;5.75;;;5.28;;
25365;SDS011;13315;48.274;-1.900;2023-11-19T04:50:11;6.65;;;5.30;;
25365;SDS011;13315;48.274;-1.900;2023-11-19T04:52:37;17.20;;;6.78;;
25365;SDS011;13315;48.274;-1.900;2023-11-19T04:55:05;24.80;;;6.18;;
25365;SDS011;13315;48.274;-1.900;2023-11-19T04:57:31;10.90;;;5.88;;
25365;SDS011;13315;48.274;-1.900;2023-11-19T04:59:58;24.13;;;5.65;;
25365;SDS011;13315;48.274;-1.900;2023-11-19T05:02:24;4.90;;;4.40;;
25365;SDS011;13315;48.274;-1.900;2023-11-19T05:04:50;8.98;;;4.68;;
25365;SDS011;13315;48.274;-1.900;2023-11-19T05:07:16;6.50;;;4.38;;
25365;SDS011;13315;48.274;-1.900;2023-11-19T05:09:43;5.68;;;3.92;;
25365;SDS011;13315;48.274;-1.900;2023-11-19T05:12:09;5.13;;;4.53;;
25365;SDS011;13315;48.274;-1.900;2023-11-19T05:14:37;3.40;;;3.20;;
25365;SDS011;13315;48.274;-1.900;2023-11-19T05:17:03;8.63;;;4.85;;
25365;SDS011;13315;48.274;-1.900;2023-11-19T05:19:29;5.43;;;4.97;;
25365;SDS011;13315;48.274;-1.900;2023-11-19T05:21:56;13.93;;;5.72;;
25365;SDS011;13315;48.274;-1.900;2023-11-19T05:24:22;5.00;;;4.63;;
25365;SDS011;13315;48.274;-1.900;2023-11-19T05:26:48;6.60;;;4.50;;
25365;SDS011;13315;48.274;-1.900;2023-11-19T05:29:15;4.47;;;4.18;;
25365;SDS011;13315;48.274;-1.900;2023-11-19T05:31:42;6.82;;;4.40;;
25365;SDS011;13315;48.274;-1.900;2023-11-19T05:34:08;8.07;;;5.10;;
25365;SDS011;13315;48.274;-1.900;2023-11-19T05:36:34;6.10;;;5.60;;
25365;SDS011;13315;48.274;-1.900;2023-11-19T05:39:00;4.90;;;4.47;;
25365;SDS011;13315;48.274;-1.900;2023-11-19T05:41:28;8.45;;;5.45;;
25365;SDS011;13315;48.274;-1.900;2023-11-19T05:43:54;20.75;;;6.80;;
25365;SDS011;13315;48.274;-1.900;2023-11-19T05:46:20;5.57;;;5.03;;
25365;SDS011;13315;48.274;-1.900;2023-11-19T05:48:50;6.70;;;5.28;;
25365;SDS011;13315;48.274;-1.900;2023-11-19T05:51:17;11.23;;;5.22;;
25365;SDS011;13315;48.274;-1.900;2023-11-19T05:53:43;15.40;;;5.32;;
25365;SDS011;13315;48.274;-1.900;2023-11-19T05:56:10;6.65;;;6.05;;
25365;SDS011;13315;48.274;-1.900;2023-11-19T05:58:37;4.55;;;4.25;;
25365;SDS011;13315;48.274;-1.900;2023-11-19T06:01:04;14.40;;;6.75;;
25365;SDS011;13315;48.274;-1.900;2023-11-19T06:03:32;10.63;;;5.40;;
25365;SDS011;13315;48.274;-1.900;2023-11-19T06:05:58;5.82;;;4.65;;
25365;SDS011;13315;48.274;-1.900;2023-11-19T06:08:24;21.00;;;6.20;;
25365;SDS011;13315;48.274;-1.900;2023-11-19T06:10:52;6.15;;;5.75;;
25365;SDS011;13315;48.274;-1.900;2023-11-19T06:13:18;5.75;;;5.35;;
25365;SDS011;13315;48.274;-1.900;2023-11-19T06:15:44;7.25;;;6.55;;
25365;SDS011;13315;48.274;-1.900;2023-11-19T06:18:11;5.55;;;5.25;;
25365;SDS011;13315;48.274;-1.900;2023-11-19T06:20:37;17.42;;;7.28;;
25365;SDS011;13315;48.274;-1.900;2023-11-19T06:23:03;5.10;;;4.90;;
25365;SDS011;13315;48.274;-1.900;2023-11-19T06:25:29;5.20;;;4.95;;
25365;SDS011;13315;48.274;-1.900;2023-11-19T06:27:55;7.18;;;6.40;;
25365;SDS011;13315;48.274;-1.900;2023-11-19T06:30:22;9.63;;;6.80;;
25365;SDS011;13315;48.274;-1.900;2023-11-19T06:32:48;5.45;;;5.18;;
25365;SDS011;13315;48.274;-1.900;2023-11-19T06:35:14;6.43;;;5.93;;
25365;SDS011;13315;48.274;-1.900;2023-11-19T06:37:41;6.32;;;5.88;;
25365;SDS011;13315;48.274;-1.900;2023-11-19T06:40:07;12.00;;;6.40;;
25365;SDS011;13315;48.274;-1.900;2023-11-19T06:42:34;6.43;;;6.03;;
25365;SDS011;13315;48.274;-1.900;2023-11-19T06:45:01;9.52;;;7.38;;
25365;SDS011;13315;48.274;-1.900;2023-11-19T06:47:27;7.45;;;5.97;;
25365;SDS011;13315;48.274;-1.900;2023-11-19T06:49:54;11.05;;;6.75;;
25365;SDS011;13315;48.274;-1.900;2023-11-19T06:52:20;6.60;;;6.05;;
25365;SDS011;13315;48.274;-1.900;2023-11-19T06:54:46;9.25;;;6.10;;
25365;SDS011;13315;48.274;-1.900;2023-11-19T06:57:12;5.93;;;5.53;;
25365;SDS011;13315;48.274;-1.900;2023-11-19T06:59:39;12.35;;;7.65;;
25365;SDS011;13315;48.274;-1.900;2023-11-19T07:02:05;9.52;;;6.60;;
25365;SDS011;13315;48.274;-1.900;2023-11-19T07:04:32;6.75;;;6.22;;
25365;SDS011;13315;48.274;-1.900;2023-11-19T07:06:58;14.77;;;8.90;;
25365;SDS011;13315;48.274;-1.900;2023-11-19T07:09:27;7.43;;;6.93;;
25365;SDS011;13315;48.274;-1.900;2023-11-19T07:11:53;9.05;;;6.68;;
25365;SDS011;13315;48.274;-1.900;2023-11-19T07:14:20;16.40;;;6.03;;
25365;SDS011;13315;48.274;-1.900;2023-11-19T07:16:48;7.07;;;6.50;;
25365;SDS011;13315;48.274;-1.900;2023-11-19T07:19:15;6.55;;;6.05;;
25365;SDS011;13315;48.274;-1.900;2023-11-19T07:21:42;7.75;;;6.35;;
25365;SDS011;13315;48.274;-1.900;2023-11-19T07:24:11;9.02;;;7.13;;
25365;SDS011;13315;48.274;-1.900;2023-11-19T07:26:45;7.15;;;6.63;;
25365;SDS011;13315;48.274;-1.900;2023-11-19T07:29:12;10.15;;;6.97;;
25365;SDS011;13315;48.274;-1.900;2023-11-19T07:31:38;10.48;;;6.78;;
25365;SDS011;13315;48.274;-1.900;2023-11-19T07:34:04;8.23;;;7.53;;
25365;SDS011;13315;48.274;-1.900;2023-11-19T07:36:31;7.38;;;5.85;;
25365;SDS011;13315;48.274;-1.900;2023-11-19T07:38:58;9.55;;;7.03;;
25365;SDS011;13315;48.274;-1.900;2023-11-19T07:41:24;6.65;;;6.28;;
25365;SDS011;13315;48.274;-1.900;2023-11-19T07:43:51;9.30;;;5.75;;
25365;SDS011;13315;48.274;-1.900;2023-11-19T07:46:17;6.63;;;6.15;;
25365;SDS011;13315;48.274;-1.900;2023-11-19T07:48:45;7.97;;;7.22;;
25365;SDS011;13315;48.274;-1.900;2023-11-19T07:51:14;6.65;;;6.25;;
25365;SDS011;13315;48.274;-1.900;2023-11-19T07:53:41;5.75;;;5.45;;
25365;SDS011;13315;48.274;-1.900;2023-11-19T07:56:08;21.95;;;5.15;;
25365;SDS011;13315;48.274;-1.900;2023-11-19T07:58:35;6.32;;;5.82;;
25365;SDS011;13315;48.274;-1.900;2023-11-19T08:01:01;7.05;;;5.28;;
25365;SDS011;13315;48.274;-1.900;2023-11-19T08:03:28;6.53;;;5.22;;
25365;SDS011;13315;48.274;-1.900;2023-11-19T08:05:59;5.63;;;5.22;;
25365;SDS011;13315;48.274;-1.900;2023-11-19T08:08:26;4.63;;;4.30;;
25365;SDS011;13315;48.274;-1.900;2023-11-19T08:10:54;6.78;;;6.10;;
25365;SDS011;13315;48.274;-1.900;2023-11-19T08:13:21;6.70;;;4.25;;
25365;SDS011;13315;48.274;-1.900;2023-11-19T08:15:47;12.60;;;4.35;;
25365;SDS011;13315;48.274;-1.900;2023-11-19T08:18:13;7.70;;;4.40;;
25365;SDS011;13315;48.274;-1.900;2023-11-19T08:20:39;8.77;;;4.38;;
25365;SDS011;13315;48.274;-1.900;2023-11-19T08:23:06;7.65;;;5.30;;
25365;SDS011;13315;48.274;-1.900;2023-11-19T08:25:32;7.63;;;4.60;;
25365;SDS011;13315;48.274;-1.900;2023-11-19T08:27:59;8.30;;;4.57;;
25365;SDS011;13315;48.274;-1.900;2023-11-19T08:30:25;3.70;;;3.50;;
25365;SDS011;13315;48.274;-1.900;2023-11-19T08:32:52;5.38;;;4.85;;
25365;SDS011;13315;48.274;-1.900;2023-11-19T08:35:18;18.38;;;5.70;;
25365;SDS011;13315;48.274;-1.900;2023-11-19T08:37:44;5.38;;;4.90;;
25365;SDS011;13315;48.274;-1.900;2023-11-19T08:40:11;24.00;;;4.10;;
25365;SDS011;13315;48.274;-1.900;2023-11-19T08:45:06;18.75;;;4.40;;
25365;SDS011;13315;48.274;-1.900;2023-11-19T08:47:33;3.70;;;3.50;;
25365;SDS011;13315;48.274;-1.900;2023-11-19T08:49:59;11.98;;;5.15;;
25365;SDS011;13315;48.274;-1.900;2023-11-19T08:52:25;6.95;;;3.40;;
25365;SDS011;13315;48.274;-1.900;2023-11-19T08:54:53;12.07;;;3.97;;
25365;SDS011;13315;48.274;-1.900;2023-11-19T08:57:20;4.10;;;3.80;;
25365;SDS011;13315;48.274;-1.900;2023-11-19T08:59:46;10.60;;;3.78;;
25365;SDS011;13315;48.274;-1.900;2023-11-19T09:02:12;11.95;;;4.25;;
25365;SDS011;13315;48.274;-1.900;2023-11-19T09:04:38;3.85;;;3.50;;
25365;SDS011;13315;48.274;-1.900;2023-11-19T09:07:05;8.10;;;4.47;;
25365;SDS011;13315;48.274;-1.900;2023-11-19T09:09:34;10.82;;;5.22;;
25365;SDS011;13315;48.274;-1.900;2023-11-19T09:12:01;9.30;;;3.28;;
25365;SDS011;13315;48.274;-1.900;2023-11-19T09:14:28;5.80;;;3.92;;
25365;SDS011;13315;48.274;-1.900;2023-11-19T09:16:55;2.83;;;2.72;;
25365;SDS011;13315;48.274;-1.900;2023-11-19T09:19:21;22.30;;;3.65;;
25365;SDS011;13315;48.274;-1.900;2023-11-19T09:21:47;11.60;;;4.70;;
25365;SDS011;13315;48.274;-1.900;2023-11-19T09:24:14;13.65;;;3.70;;
25365;SDS011;13315;48.274;-1.900;2023-11-19T09:26:40;9.18;;;3.22;;
25365;SDS011;13315;48.274;-1.900;2023-11-19T09:29:09;13.88;;;4.38;;
25365;SDS011;13315;48.274;-1.900;2023-11-19T09:31:37;6.30;;;3.78;;
25365;SDS011;13315;48.274;-1.900;2023-11-19T09:34:03;17.23;;;3.65;;
25365;SDS011;13315;48.274;-1.900;2023-11-19T09:36:30;12.63;;;4.78;;
25365;SDS011;13315;48.274;-1.900;2023-11-19T09:38:56;6.95;;;3.72;;
25365;SDS011;13315;48.274;-1.900;2023-11-19T09:41:22;8.23;;;4.03;;
25365;SDS011;13315;48.274;-1.900;2023-11-19T09:43:49;7.95;;;4.32;;
25365;SDS011;13315;48.274;-1.900;2023-11-19T09:46:15;12.82;;;3.53;;
25365;SDS011;13315;48.274;-1.900;2023-11-19T09:48:42;3.00;;;2.80;;
25365;SDS011;13315;48.274;-1.900;2023-11-19T09:51:09;8.65;;;4.15;;
25365;SDS011;13315;48.274;-1.900;2023-11-19T09:53:36;4.97;;;3.90;;
25365;SDS011;13315;48.274;-1.900;2023-11-19T09:56:03;14.73;;;3.75;;
25365;SDS011;13315;48.274;-1.900;2023-11-19T09:58:29;5.28;;;4.78;;
25365;SDS011;13315;48.274;-1.900;2023-11-19T10:00:58;16.15;;;3.90;;
25365;SDS011;13315;48.274;-1.900;2023-11-19T10:03:26;12.48;;;3.67;;
25365;SDS011;13315;48.274;-1.900;2023-11-19T10:05:54;11.05;;;5.10;;
25365;SDS011;13315;48.274;-1.900;2023-11-19T10:08:21;4.50;;;4.03;;
25365;SDS011;13315;48.274;-1.900;2023-11-19T10:10:47;31.98;;;6.40;;
25365;SDS011;13315;48.274;-1.900;2023-11-19T10:13:14;6.80;;;5.78;;
25365;SDS011;13315;48.274;-1.900;2023-11-19T10:15:40;4.65;;;4.20;;
25365;SDS011;13315;48.274;-1.900;2023-11-19T10:18:07;11.73;;;4.03;;
25365;SDS011;13315;48.274;-1.900;2023-11-19T10:20:36;3.60;;;3.40;;
25365;SDS011;13315;48.274;-1.900;2023-11-19T10:23:02;14.93;;;5.07;;
25365;SDS011;13315;48.274;-1.900;2023-11-19T10:25:29;5.50;;;4.20;;
25365;SDS011;13315;48.274;-1.900;2023-11-19T10:27:55;10.88;;;4.22;;
25365;SDS011;13315;48.274;-1.900;2023-11-19T10:30:22;8.43;;;3.92;;
25365;SDS011;13315;48.274;-1.900;2023-11-19T10:35:34;16.52;;;4.25;;
25365;SDS011;13315;48.274;-1.900;2023-11-19T10:38:13;13.15;;;4.72;;
25365;SDS011;13315;48.274;-1.900;2023-11-19T10:40:40;3.20;;;3.00;;
25365;SDS011;13315;48.274;-1.900;2023-11-19T10:43:06;7.93;;;4.72;;
25365;SDS011;13315;48.274;-1.900;2023-11-19T10:45:33;3.20;;;3.00;;
25365;SDS011;13315;48.274;-1.900;2023-11-19T10:47:59;11.48;;;4.22;;
25365;SDS011;13315;48.274;-1.900;2023-11-19T10:50:26;13.68;;;3.50;;
25365;SDS011;13315;48.274;-1.900;2023-11-19T10:52:55;4.82;;;3.75;;
25365;SDS011;13315;48.274;-1.900;2023-11-19T10:55:27;7.53;;;4.68;;
25365;SDS011;13315;48.274;-1.900;2023-11-19T10:57:56;4.63;;;3.92;;
25365;SDS011;13315;48.274;-1.900;2023-11-19T11:00:24;12.48;;;4.32;;
25365;SDS011;13315;48.274;-1.900;2023-11-19T11:02:50;3.70;;;3.50;;
25365;SDS011;13315;48.274;-1.900;2023-11-19T11:05:19;10.40;;;4.32;;
25365;SDS011;13315;48.274;-1.900;2023-11-19T11:07:46;3.28;;;3.05;;
25365;SDS011;13315;48.274;-1.900;2023-11-19T11:10:12;6.72;;;3.90;;
25365;SDS011;13315;48.274;-1.900;2023-11-19T11:12:39;8.93;;;3.50;;
25365;SDS011;13315;48.274;-1.900;2023-11-19T11:15:06;3.28;;;2.95;;
25365;SDS011;13315;48.274;-1.900;2023-11-19T11:17:33;4.75;;;4.30;;
25365;SDS011;13315;48.274;-1.900;2023-11-19T11:19:59;5.45;;;3.85;;
25365;SDS011;13315;48.274;-1.900;2023-11-19T11:22:26;2.50;;;2.40;;
25365;SDS011;13315;48.274;-1.900;2023-11-19T11:25:02;9.88;;;2.72;;
25365;SDS011;13315;48.274;-1.900;2023-11-19T11:27:36;2.90;;;2.28;;
25365;SDS011;13315;48.274;-1.900;2023-11-19T11:30:11;3.38;;;3.17;;
25365;SDS011;13315;48.274;-1.900;2023-11-19T11:33:01;13.05;;;3.17;;
25365;SDS011;13315;48.274;-1.900;2023-11-19T11:35:33;6.22;;;3.53;;
25365;SDS011;13315;48.274;-1.900;2023-11-19T11:38:08;3.13;;;2.92;;
25365;SDS011;13315;48.274;-1.900;2023-11-19T11:40:34;5.55;;;4.05;;
25365;SDS011;13315;48.274;-1.900;2023-11-19T11:43:01;13.75;;;3.28;;
25365;SDS011;13315;48.274;-1.900;2023-11-19T11:45:39;6.13;;;4.18;;
25365;SDS011;13315;48.274;-1.900;2023-11-19T11:48:11;9.68;;;3.45;;
25365;SDS011;13315;48.274;-1.900;2023-11-19T11:50:54;3.05;;;2.58;;
25365;SDS011;13315;48.274;-1.900;2023-11-19T11:53:21;7.97;;;3.17;;
25365;SDS011;13315;48.274;-1.900;2023-11-19T11:58:20;2.70;;;2.50;;
25365;SDS011;13315;48.274;-1.900;2023-11-19T12:00:46;2.45;;;2.28;;
25365;SDS011;13315;48.274;-1.900;2023-11-19T12:03:13;14.63;;;4.13;;
25365;SDS011;13315;48.274;-1.900;2023-11-19T12:05:48;5.32;;;2.05;;
25365;SDS011;13315;48.274;-1.900;2023-11-19T12:08:17;15.45;;;3.78;;
25365;SDS011;13315;48.274;-1.900;2023-11-19T12:10:51;6.40;;;2.50;;
25365;SDS011;13315;48.274;-1.900;2023-11-19T12:13:18;9.80;;;3.47;;
25365;SDS011;13315;48.274;-1.900;2023-11-19T12:16:08;3.53;;;3.22;;
25365;SDS011;13315;48.274;-1.900;2023-11-19T12:18:33;3.63;;;2.97;;
25365;SDS011;13315;48.274;-1.900;2023-11-19T12:21:00;5.32;;;2.25;;
25365;SDS011;13315;48.274;-1.900;2023-11-19T12:23:30;3.15;;;2.85;;
25365;SDS011;13315;48.274;-1.900;2023-11-19T12:25:59;5.95;;;2.95;;
25365;SDS011;13315;48.274;-1.900;2023-11-19T12:28:25;2.67;;;2.55;;
25365;SDS011;13315;48.274;-1.900;2023-11-19T12:30:52;2.38;;;2.13;;
25365;SDS011;13315;48.274;-1.900;2023-11-19T12:33:19;6.82;;;3.30;;
25365;SDS011;13315;48.274;-1.900;2023-11-19T12:35:45;3.35;;;2.55;;
25365;SDS011;13315;48.274;-1.900;2023-11-19T12:38:21;3.45;;;3.15;;
25365;SDS011;13315;48.274;-1.900;2023-11-19T12:41:02;4.20;;;2.60;;
25365;SDS011;13315;48.274;-1.900;2023-11-19T12:43:28;8.27;;;3.38;;
25365;SDS011;13315;48.274;-1.900;2023-11-19T12:45:54;2.90;;;2.28;;
25365;SDS011;13315;48.274;-1.900;2023-11-19T12:48:20;5.60;;;3.95;;
25365;SDS011;13315;48.274;-1.900;2023-11-19T12:50:58;7.13;;;3.53;;
25365;SDS011;13315;48.274;-1.900;2023-11-19T12:53:26;2.85;;;2.65;;
25365;SDS011;13315;48.274;-1.900;2023-11-19T12:55:54;3.13;;;2.83;;
25365;SDS011;13315;48.274;-1.900;2023-11-19T13:01:08;13.15;;;3.28;;
25365;SDS011;13315;48.274;-1.900;2023-11-19T13:03:38;23.98;;;2.67;;
25365;SDS011;13315;48.274;-1.900;2023-11-19T13:06:08;2.30;;;2.20;;
25365;SDS011;13315;48.274;-1.900;2023-11-19T13:08:44;3.25;;;3.05;;
25365;SDS011;13315;48.274;-1.900;2023-11-19T13:11:11;5.10;;;2.47;;
25365;SDS011;13315;48.274;-1.900;2023-11-19T13:16:23;2.22;;;2.13;;
25365;SDS011;13315;48.274;-1.900;2023-11-19T13:18:49;2.25;;;2.15;;
25365;SDS011;13315;48.274;-1.900;2023-11-19T13:21:16;3.05;;;2.72;;
25365;SDS011;13315;48.274;-1.900;2023-11-19T13:23:43;2.10;;;2.00;;
25365;SDS011;13315;48.274;-1.900;2023-11-19T13:26:09;2.80;;;2.60;;
25365;SDS011;13315;48.274;-1.900;2023-11-19T13:28:35;4.20;;;3.17;;
25365;SDS011;13315;48.274;-1.900;2023-11-19T13:31:02;11.02;;;3.85;;
25365;SDS011;13315;48.274;-1.900;2023-11-19T13:33:28;3.10;;;2.78;;
25365;SDS011;13315;48.274;-1.900;2023-11-19T13:35:57;2.80;;;2.53;;
25365;SDS011;13315;48.274;-1.900;2023-11-19T13:38:23;5.75;;;3.17;;
25365;SDS011;13315;48.274;-1.900;2023-11-19T13:40:49;2.72;;;2.53;;
25365;SDS011;13315;48.274;-1.900;2023-11-19T13:43:16;9.88;;;4.07;;
25365;SDS011;13315;48.274;-1.900;2023-11-19T13:45:42;9.00;;;4.18;;
25365;SDS011;13315;48.274;-1.900;2023-11-19T13:48:08;3.75;;;2.40;;
25365;SDS011;13315;48.274;-1.900;2023-11-19T13:50:34;3.10;;;2.90;;
25365;SDS011;13315;48.274;-1.900;2023-11-19T13:53:00;2.70;;;2.53;;
25365;SDS011;13315;48.274;-1.900;2023-11-19T13:55:26;3.05;;;2.85;;
25365;SDS011;13315;48.274;-1.900;2023-11-19T13:57:52;5.85;;;2.63;;
25365;SDS011;13315;48.274;-1.900;2023-11-19T14:00:18;4.47;;;2.47;;
25365;SDS011;13315;48.274;-1.900;2023-11-19T14:02:47;2.95;;;2.75;;
25365;SDS011;13315;48.274;-1.900;2023-11-19T14:05:13;3.28;;;2.78;;
25365;SDS011;13315;48.274;-1.900;2023-11-19T14:07:42;4.68;;;2.30;;
25365;SDS011;13315;48.274;-1.900;2023-11-19T14:10:08;4.75;;;3.47;;
25365;SDS011;13315;48.274;-1.900;2023-11-19T14:12:36;5.25;;;2.47;;
25365;SDS011;13315;48.274;-1.900;2023-11-19T14:15:03;8.23;;;2.40;;
25365;SDS011;13315;48.274;-1.900;2023-11-19T14:17:31;2.60;;;2.40;;
25365;SDS011;13315;48.274;-1.900;2023-11-19T14:19:57;3.22;;;2.50;;
25365;SDS011;13315;48.274;-1.900;2023-11-19T14:22:23;8.00;;;3.38;;
25365;SDS011;13315;48.274;-1.900;2023-11-19T14:24:49;2.72;;;2.58;;
25365;SDS011;13315;48.274;-1.900;2023-11-19T14:27:15;16.80;;;2.92;;
25365;SDS011;13315;48.274;-1.900;2023-11-19T14:29:45;3.67;;;3.42;;
25365;SDS011;13315;48.274;-1.900;2023-11-19T14:32:11;2.90;;;2.80;;
25365;SDS011;13315;48.274;-1.900;2023-11-19T14:34:37;4.65;;;3.25;;
25365;SDS011;13315;48.274;-1.900;2023-11-19T14:37:03;8.27;;;3.83;;
25365;SDS011;13315;48.274;-1.900;2023-11-19T14:39:29;3.47;;;3.15;;
25365;SDS011;13315;48.274;-1.900;2023-11-19T14:41:59;5.55;;;3.17;;
25365;SDS011;13315;48.274;-1.900;2023-11-19T14:44:29;31.02;;;3.67;;